Hauptseite
METAR-TAF:

METAR-TAF

Flughäfen :

Lleida, Spanien

Lleida-Alguaire

Breite: 41-43-40N, Länge: 000-32-09E, Höhe: 350 m

Beobachtung

Neuester Wetterbericht von vor 17 Stunden und 7 Minuten, um 16:00 UTC
Wind 7 kt aus Süd
Temperatur 22°C
Luftfeuchtigkeit 50%
Luftdruck 1016 hPa
Sichtweite 10 km oder mehr
keine Wolken unter 1500 m und keine Kumulonimbus oder Gewitterwolken

METAR: LEDA 221600Z 19007KT CAVOK 22/11 Q1016

Zeit: 11:07 (09:07 UTC)

Prognose

Neuester Wetterbericht von vor 19 Stunden und 7 Minuten, um 14:00 UTC
Gültige Prognose vom 22 um 15 UTC bis 23 um 15 UTC
Wind 8 kt aus Süd/Südost
Sichtweite 10 km oder mehr
Leicht bewölkt in der Höhe von 5000 ft
Übergehend zu
vom 22 um 20 UTC bis 22 um 22 UTC
Wind 5 kt aus Ost

TAF: LEDA 221400Z 2215/2315 16008KT 9999 FEW050 TX26/2313Z TN11/2306Z BECMG 2220/2222 10005KT

Wetterbeobachtungen und Prognosen von mehr als 4000 Flughäfen (METAR und TAF Bericht).

Die verfügbaren Stationen werden durch gelbe und rote Markierungen auf der Karte dargestellt.

Führen Sie die Maus auf sie, um den Namen der Station zu sehen.

Darauf klicken, um die Beobachtung von Wetterbeobachtungen und Prognosen zu sehen.

Um die Karte zu ändern : klicken Sie auf den grünen Tasten mit einem schwarzen Kreuz Zum Vergrößern, auf den grünen Button mit einem Gedankenstrich zu verkleinern, oder auf die grünen Pfeile für benachbarte Karten.


METAR-TAF: